Página principal
METAR-TAF:

METAR-TAF

Aeroportos :

Pequim, China

Aeroporto Internacional de Pequim

latitude: 39-56N, longitude: 116-17E, altura: 55 m

Observação actual do tempo

O boletim foi feito há 29 minutos, às 14:00 UTC
Vento calmo
Temperatura 18°C
Humidade 88%
Pressão 1009 hPa
Visibilidade 10 km ou mais
sem nuvens abaixo de 1500 metros e sem cumulonimbus

METAR: ZBAA 231400Z 00000MPS CAVOK 18/16 Q1009 NOSIG

Hora: 22:29 (14:29 UTC)

Previsão

O boletim foi feito há 5 horas e 9 minutos, às 09:20 UTC
Previsão válida de 23 às 12 UTC a 24 às 12 UTC
Vento 8 kt de es-sudeste
Visibilidade 10 km ou mais
sem nuvens abaixo de 1500 metros e sem cumulonimbus

TAF: ZBAA 230920Z 2312/2412 12004MPS CAVOK TX27/2407Z TN17/2321Z

Observações e previsões do tempo de mais de 4000 aeroportos (mensagens METAR e TAF).

As estações disponíveis são os pontos amarelos e vermelhos sobre o mapa.

Mova o rato sobre o mapa para ver o nome da estação.

Depois clique no ponto para visualizar as observações e previsões meteorológicas.

Para alterar o mapa : clique nos botões verdes com uma cruz preta para aumentar o zoom; no botão verde com uma pitada de zoom; ou nas setas verdes para mapas adjacentes.


METAR-TAF: